sensor_id;sensor_type;location;lat;lon;timestamp;P1;durP1;ratioP1;P2;durP2;ratioP2
61709;SDS011;73500;51.494;5.386;2023-12-20T00:01:48;5.37;;;1.40;;
61709;SDS011;73500;51.494;5.386;2023-12-20T00:04:14;3.45;;;1.40;;
61709;SDS011;73500;51.494;5.386;2023-12-20T00:06:39;5.70;;;1.63;;
61709;SDS011;73500;51.494;5.386;2023-12-20T00:09:04;4.23;;;1.37;;
61709;SDS011;73500;51.494;5.386;2023-12-20T00:11:30;5.28;;;1.45;;
61709;SDS011;73500;51.494;5.386;2023-12-20T00:13:55;4.35;;;1.25;;
61709;SDS011;73500;51.494;5.386;2023-12-20T00:16:20;3.67;;;1.20;;
61709;SDS011;73500;51.494;5.386;2023-12-20T00:18:46;4.15;;;1.23;;
61709;SDS011;73500;51.494;5.386;2023-12-20T00:21:11;3.38;;;1.50;;
61709;SDS011;73500;51.494;5.386;2023-12-20T00:23:37;3.05;;;0.98;;
61709;SDS011;73500;51.494;5.386;2023-12-20T00:26:02;4.43;;;1.50;;
61709;SDS011;73500;51.494;5.386;2023-12-20T00:28:27;4.40;;;1.33;;
61709;SDS011;73500;51.494;5.386;2023-12-20T00:30:53;3.67;;;1.20;;
61709;SDS011;73500;51.494;5.386;2023-12-20T00:33:18;4.00;;;1.20;;
61709;SDS011;73500;51.494;5.386;2023-12-20T00:35:44;4.75;;;1.55;;
61709;SDS011;73500;51.494;5.386;2023-12-20T00:38:09;5.43;;;1.40;;
61709;SDS011;73500;51.494;5.386;2023-12-20T00:40:35;3.95;;;1.20;;
61709;SDS011;73500;51.494;5.386;2023-12-20T00:43:00;3.95;;;1.27;;
61709;SDS011;73500;51.494;5.386;2023-12-20T00:45:25;3.92;;;1.52;;
61709;SDS011;73500;51.494;5.386;2023-12-20T00:47:51;4.30;;;1.45;;
61709;SDS011;73500;51.494;5.386;2023-12-20T00:50:16;3.58;;;1.20;;
61709;SDS011;73500;51.494;5.386;2023-12-20T00:52:41;5.05;;;1.35;;
61709;SDS011;73500;51.494;5.386;2023-12-20T00:55:07;5.20;;;1.03;;
61709;SDS011;73500;51.494;5.386;2023-12-20T00:57:32;3.50;;;1.25;;
61709;SDS011;73500;51.494;5.386;2023-12-20T00:59:58;4.90;;;1.40;;
61709;SDS011;73500;51.494;5.386;2023-12-20T01:02:23;4.28;;;1.15;;
61709;SDS011;73500;51.494;5.386;2023-12-20T01:04:48;3.17;;;1.20;;
61709;SDS011;73500;51.494;5.386;2023-12-20T01:07:14;4.60;;;1.30;;
61709;SDS011;73500;51.494;5.386;2023-12-20T01:09:39;4.75;;;1.50;;
61709;SDS011;73500;51.494;5.386;2023-12-20T01:12:05;6.13;;;1.30;;
61709;SDS011;73500;51.494;5.386;2023-12-20T01:14:30;4.40;;;1.17;;
61709;SDS011;73500;51.494;5.386;2023-12-20T01:16:55;4.43;;;1.30;;
61709;SDS011;73500;51.494;5.386;2023-12-20T01:19:21;4.45;;;1.23;;
61709;SDS011;73500;51.494;5.386;2023-12-20T01:21:46;4.18;;;1.20;;
61709;SDS011;73500;51.494;5.386;2023-12-20T01:24:12;6.45;;;1.58;;
61709;SDS011;73500;51.494;5.386;2023-12-20T01:26:37;4.22;;;1.30;;
61709;SDS011;73500;51.494;5.386;2023-12-20T01:29:02;4.83;;;1.40;;
61709;SDS011;73500;51.494;5.386;2023-12-20T01:31:28;5.28;;;1.27;;
61709;SDS011;73500;51.494;5.386;2023-12-20T01:33:53;5.13;;;1.40;;
61709;SDS011;73500;51.494;5.386;2023-12-20T01:36:18;4.65;;;1.40;;
61709;SDS011;73500;51.494;5.386;2023-12-20T01:38:44;3.40;;;1.00;;
61709;SDS011;73500;51.494;5.386;2023-12-20T01:41:10;4.43;;;1.40;;
61709;SDS011;73500;51.494;5.386;2023-12-20T01:43:35;4.40;;;1.20;;
61709;SDS011;73500;51.494;5.386;2023-12-20T01:46:01;3.92;;;1.20;;
61709;SDS011;73500;51.494;5.386;2023-12-20T01:48:28;3.63;;;1.10;;
61709;SDS011;73500;51.494;5.386;2023-12-20T01:50:54;2.90;;;0.90;;
61709;SDS011;73500;51.494;5.386;2023-12-20T01:53:21;4.32;;;1.13;;
61709;SDS011;73500;51.494;5.386;2023-12-20T01:55:48;4.35;;;1.40;;
61709;SDS011;73500;51.494;5.386;2023-12-20T01:58:17;5.30;;;1.25;;
61709;SDS011;73500;51.494;5.386;2023-12-20T02:00:43;4.35;;;1.30;;
61709;SDS011;73500;51.494;5.386;2023-12-20T02:03:09;3.67;;;1.20;;
61709;SDS011;73500;51.494;5.386;2023-12-20T02:05:34;6.47;;;1.55;;
61709;SDS011;73500;51.494;5.386;2023-12-20T02:08:01;4.93;;;1.38;;
61709;SDS011;73500;51.494;5.386;2023-12-20T02:10:27;4.15;;;1.25;;
61709;SDS011;73500;51.494;5.386;2023-12-20T02:12:52;4.65;;;1.10;;
61709;SDS011;73500;51.494;5.386;2023-12-20T02:15:18;6.28;;;1.23;;
61709;SDS011;73500;51.494;5.386;2023-12-20T02:17:43;5.80;;;1.40;;
61709;SDS011;73500;51.494;5.386;2023-12-20T02:20:10;5.35;;;1.27;;
61709;SDS011;73500;51.494;5.386;2023-12-20T02:22:37;4.82;;;1.30;;
61709;SDS011;73500;51.494;5.386;2023-12-20T02:25:02;4.75;;;1.10;;
61709;SDS011;73500;51.494;5.386;2023-12-20T02:27:28;4.63;;;1.30;;
61709;SDS011;73500;51.494;5.386;2023-12-20T02:29:54;5.22;;;1.30;;
61709;SDS011;73500;51.494;5.386;2023-12-20T02:32:20;4.30;;;1.10;;
61709;SDS011;73500;51.494;5.386;2023-12-20T02:34:47;3.67;;;1.13;;
61709;SDS011;73500;51.494;5.386;2023-12-20T02:37:13;5.68;;;1.70;;
61709;SDS011;73500;51.494;5.386;2023-12-20T02:39:39;4.15;;;1.20;;
61709;SDS011;73500;51.494;5.386;2023-12-20T02:42:04;3.83;;;1.27;;
61709;SDS011;73500;51.494;5.386;2023-12-20T02:44:29;4.35;;;1.40;;
61709;SDS011;73500;51.494;5.386;2023-12-20T02:46:54;4.57;;;1.13;;
61709;SDS011;73500;51.494;5.386;2023-12-20T02:49:20;3.63;;;1.13;;
61709;SDS011;73500;51.494;5.386;2023-12-20T02:51:45;5.63;;;1.40;;
61709;SDS011;73500;51.494;5.386;2023-12-20T02:54:12;4.57;;;1.27;;
61709;SDS011;73500;51.494;5.386;2023-12-20T02:56:37;4.25;;;1.25;;
61709;SDS011;73500;51.494;5.386;2023-12-20T02:59:02;5.18;;;1.40;;
61709;SDS011;73500;51.494;5.386;2023-12-20T03:01:30;5.55;;;1.30;;
61709;SDS011;73500;51.494;5.386;2023-12-20T03:03:55;5.28;;;1.40;;
61709;SDS011;73500;51.494;5.386;2023-12-20T03:06:21;3.80;;;1.10;;
61709;SDS011;73500;51.494;5.386;2023-12-20T03:08:46;4.60;;;1.30;;
61709;SDS011;73500;51.494;5.386;2023-12-20T03:11:11;3.85;;;1.10;;
61709;SDS011;73500;51.494;5.386;2023-12-20T03:13:37;5.60;;;1.10;;
61709;SDS011;73500;51.494;5.386;2023-12-20T03:16:11;4.05;;;1.25;;
61709;SDS011;73500;51.494;5.386;2023-12-20T03:18:38;5.05;;;1.20;;
61709;SDS011;73500;51.494;5.386;2023-12-20T03:21:06;4.53;;;1.38;;
61709;SDS011;73500;51.494;5.386;2023-12-20T03:23:31;4.00;;;1.30;;
61709;SDS011;73500;51.494;5.386;2023-12-20T03:25:58;4.57;;;1.63;;
61709;SDS011;73500;51.494;5.386;2023-12-20T03:28:24;3.60;;;1.10;;
61709;SDS011;73500;51.494;5.386;2023-12-20T03:30:50;4.80;;;1.25;;
61709;SDS011;73500;51.494;5.386;2023-12-20T03:33:15;5.65;;;1.27;;
61709;SDS011;73500;51.494;5.386;2023-12-20T03:35:40;4.35;;;1.17;;
61709;SDS011;73500;51.494;5.386;2023-12-20T03:38:06;4.60;;;1.10;;
61709;SDS011;73500;51.494;5.386;2023-12-20T03:40:31;4.80;;;1.35;;
61709;SDS011;73500;51.494;5.386;2023-12-20T03:42:57;3.40;;;1.33;;
61709;SDS011;73500;51.494;5.386;2023-12-20T03:45:22;5.80;;;1.58;;
61709;SDS011;73500;51.494;5.386;2023-12-20T03:47:47;5.43;;;1.60;;
61709;SDS011;73500;51.494;5.386;2023-12-20T03:50:13;4.05;;;1.15;;
61709;SDS011;73500;51.494;5.386;2023-12-20T03:52:39;5.00;;;1.30;;
61709;SDS011;73500;51.494;5.386;2023-12-20T03:55:04;4.18;;;1.30;;
61709;SDS011;73500;51.494;5.386;2023-12-20T03:57:30;4.55;;;1.17;;
61709;SDS011;73500;51.494;5.386;2023-12-20T03:59:55;3.47;;;1.00;;
61709;SDS011;73500;51.494;5.386;2023-12-20T04:02:20;4.53;;;1.40;;
61709;SDS011;73500;51.494;5.386;2023-12-20T04:04:45;5.05;;;1.50;;
61709;SDS011;73500;51.494;5.386;2023-12-20T04:07:11;5.53;;;1.38;;
61709;SDS011;73500;51.494;5.386;2023-12-20T04:09:36;4.90;;;1.40;;
61709;SDS011;73500;51.494;5.386;2023-12-20T04:12:01;5.30;;;1.50;;
61709;SDS011;73500;51.494;5.386;2023-12-20T04:14:27;4.63;;;1.38;;
61709;SDS011;73500;51.494;5.386;2023-12-20T04:16:52;5.55;;;1.63;;
61709;SDS011;73500;51.494;5.386;2023-12-20T04:19:18;5.90;;;1.50;;
61709;SDS011;73500;51.494;5.386;2023-12-20T04:21:43;5.03;;;1.40;;
61709;SDS011;73500;51.494;5.386;2023-12-20T04:24:09;5.53;;;1.40;;
61709;SDS011;73500;51.494;5.386;2023-12-20T04:26:34;6.40;;;1.55;;
61709;SDS011;73500;51.494;5.386;2023-12-20T04:29:00;5.93;;;1.38;;
61709;SDS011;73500;51.494;5.386;2023-12-20T04:31:25;6.07;;;1.95;;
61709;SDS011;73500;51.494;5.386;2023-12-20T04:33:50;5.53;;;1.33;;
61709;SDS011;73500;51.494;5.386;2023-12-20T04:36:15;4.57;;;1.13;;
61709;SDS011;73500;51.494;5.386;2023-12-20T04:38:41;4.30;;;1.40;;
61709;SDS011;73500;51.494;5.386;2023-12-20T04:41:06;6.63;;;2.00;;
61709;SDS011;73500;51.494;5.386;2023-12-20T04:43:31;4.97;;;1.52;;
61709;SDS011;73500;51.494;5.386;2023-12-20T04:45:57;6.32;;;1.60;;
61709;SDS011;73500;51.494;5.386;2023-12-20T04:48:22;5.65;;;1.50;;
61709;SDS011;73500;51.494;5.386;2023-12-20T04:50:47;4.40;;;1.27;;
61709;SDS011;73500;51.494;5.386;2023-12-20T04:53:13;5.55;;;1.52;;
61709;SDS011;73500;51.494;5.386;2023-12-20T04:55:38;7.00;;;1.60;;
61709;SDS011;73500;51.494;5.386;2023-12-20T04:58:04;5.72;;;1.70;;
61709;SDS011;73500;51.494;5.386;2023-12-20T05:00:29;3.35;;;1.00;;
61709;SDS011;73500;51.494;5.386;2023-12-20T05:02:55;5.32;;;1.48;;
61709;SDS011;73500;51.494;5.386;2023-12-20T05:05:20;3.95;;;1.27;;
61709;SDS011;73500;51.494;5.386;2023-12-20T05:07:46;3.78;;;1.20;;
61709;SDS011;73500;51.494;5.386;2023-12-20T05:10:11;5.75;;;1.58;;
61709;SDS011;73500;51.494;5.386;2023-12-20T05:12:36;7.07;;;1.73;;
61709;SDS011;73500;51.494;5.386;2023-12-20T05:15:01;6.10;;;1.42;;
61709;SDS011;73500;51.494;5.386;2023-12-20T05:17:27;4.47;;;1.30;;
61709;SDS011;73500;51.494;5.386;2023-12-20T05:19:52;5.23;;;1.53;;
61709;SDS011;73500;51.494;5.386;2023-12-20T05:22:18;4.70;;;1.15;;
61709;SDS011;73500;51.494;5.386;2023-12-20T05:24:45;5.28;;;1.30;;
61709;SDS011;73500;51.494;5.386;2023-12-20T05:27:10;5.22;;;1.65;;
61709;SDS011;73500;51.494;5.386;2023-12-20T05:29:36;4.57;;;1.38;;
61709;SDS011;73500;51.494;5.386;2023-12-20T05:32:01;5.20;;;1.50;;
61709;SDS011;73500;51.494;5.386;2023-12-20T05:34:28;5.80;;;1.60;;
61709;SDS011;73500;51.494;5.386;2023-12-20T05:36:53;5.80;;;1.77;;
61709;SDS011;73500;51.494;5.386;2023-12-20T05:39:19;4.68;;;1.40;;
61709;SDS011;73500;51.494;5.386;2023-12-20T05:41:44;4.90;;;1.40;;
61709;SDS011;73500;51.494;5.386;2023-12-20T05:44:09;4.78;;;1.30;;
61709;SDS011;73500;51.494;5.386;2023-12-20T05:46:35;7.93;;;1.38;;
61709;SDS011;73500;51.494;5.386;2023-12-20T05:49:01;6.05;;;1.83;;
61709;SDS011;73500;51.494;5.386;2023-12-20T05:51:28;5.22;;;1.60;;
61709;SDS011;73500;51.494;5.386;2023-12-20T05:53:53;6.65;;;1.80;;
61709;SDS011;73500;51.494;5.386;2023-12-20T05:56:18;4.82;;;1.77;;
61709;SDS011;73500;51.494;5.386;2023-12-20T05:58:44;4.20;;;1.30;;
61709;SDS011;73500;51.494;5.386;2023-12-20T06:01:09;5.93;;;1.45;;
61709;SDS011;73500;51.494;5.386;2023-12-20T06:03:34;3.63;;;1.10;;
61709;SDS011;73500;51.494;5.386;2023-12-20T06:06:04;5.78;;;1.50;;
61709;SDS011;73500;51.494;5.386;2023-12-20T06:08:32;5.97;;;1.70;;
61709;SDS011;73500;51.494;5.386;2023-12-20T06:10:57;5.72;;;1.50;;
61709;SDS011;73500;51.494;5.386;2023-12-20T06:13:22;4.85;;;1.50;;
61709;SDS011;73500;51.494;5.386;2023-12-20T06:15:47;4.35;;;1.30;;
61709;SDS011;73500;51.494;5.386;2023-12-20T06:18:13;3.70;;;1.30;;
61709;SDS011;73500;51.494;5.386;2023-12-20T06:20:38;4.10;;;1.15;;
61709;SDS011;73500;51.494;5.386;2023-12-20T06:23:03;4.18;;;1.38;;
61709;SDS011;73500;51.494;5.386;2023-12-20T06:25:29;6.35;;;1.20;;
61709;SDS011;73500;51.494;5.386;2023-12-20T06:27:54;4.55;;;1.38;;
61709;SDS011;73500;51.494;5.386;2023-12-20T06:30:19;4.88;;;1.20;;
61709;SDS011;73500;51.494;5.386;2023-12-20T06:32:45;5.57;;;1.25;;
61709;SDS011;73500;51.494;5.386;2023-12-20T06:35:11;4.75;;;1.23;;
61709;SDS011;73500;51.494;5.386;2023-12-20T06:37:37;3.72;;;1.20;;
61709;SDS011;73500;51.494;5.386;2023-12-20T06:40:02;4.10;;;1.10;;
61709;SDS011;73500;51.494;5.386;2023-12-20T06:42:28;3.65;;;1.17;;
61709;SDS011;73500;51.494;5.386;2023-12-20T06:44:53;5.32;;;1.40;;
61709;SDS011;73500;51.494;5.386;2023-12-20T06:47:18;4.50;;;1.40;;
61709;SDS011;73500;51.494;5.386;2023-12-20T06:49:44;4.90;;;1.20;;
61709;SDS011;73500;51.494;5.386;2023-12-20T06:52:10;4.75;;;1.30;;
61709;SDS011;73500;51.494;5.386;2023-12-20T06:54:35;5.32;;;1.40;;
61709;SDS011;73500;51.494;5.386;2023-12-20T06:57:01;4.38;;;1.25;;
61709;SDS011;73500;51.494;5.386;2023-12-20T06:59:27;4.88;;;1.35;;
61709;SDS011;73500;51.494;5.386;2023-12-20T07:01:53;3.88;;;1.40;;
61709;SDS011;73500;51.494;5.386;2023-12-20T07:04:19;5.43;;;1.45;;
61709;SDS011;73500;51.494;5.386;2023-12-20T07:06:46;2.45;;;1.00;;
61709;SDS011;73500;51.494;5.386;2023-12-20T07:09:12;3.95;;;1.20;;
61709;SDS011;73500;51.494;5.386;2023-12-20T07:11:38;4.57;;;1.20;;
61709;SDS011;73500;51.494;5.386;2023-12-20T07:14:03;3.90;;;1.20;;
61709;SDS011;73500;51.494;5.386;2023-12-20T07:16:29;4.55;;;1.40;;
61709;SDS011;73500;51.494;5.386;2023-12-20T07:18:54;4.97;;;1.38;;
61709;SDS011;73500;51.494;5.386;2023-12-20T07:21:19;4.13;;;1.27;;
61709;SDS011;73500;51.494;5.386;2023-12-20T07:23:45;5.20;;;1.40;;
61709;SDS011;73500;51.494;5.386;2023-12-20T07:26:10;4.33;;;1.33;;
61709;SDS011;73500;51.494;5.386;2023-12-20T07:28:36;6.07;;;1.50;;
61709;SDS011;73500;51.494;5.386;2023-12-20T07:31:01;4.30;;;1.30;;
61709;SDS011;73500;51.494;5.386;2023-12-20T07:33:27;5.38;;;1.20;;
61709;SDS011;73500;51.494;5.386;2023-12-20T07:35:52;5.77;;;1.43;;
61709;SDS011;73500;51.494;5.386;2023-12-20T07:38:17;5.18;;;1.50;;
61709;SDS011;73500;51.494;5.386;2023-12-20T07:40:43;5.95;;;1.80;;
61709;SDS011;73500;51.494;5.386;2023-12-20T07:43:08;4.82;;;1.48;;
61709;SDS011;73500;51.494;5.386;2023-12-20T07:45:34;5.50;;;1.50;;
61709;SDS011;73500;51.494;5.386;2023-12-20T07:47:59;4.90;;;1.33;;
61709;SDS011;73500;51.494;5.386;2023-12-20T07:50:25;6.20;;;1.58;;
61709;SDS011;73500;51.494;5.386;2023-12-20T07:52:51;4.78;;;1.30;;
61709;SDS011;73500;51.494;5.386;2023-12-20T07:55:16;4.18;;;1.38;;
61709;SDS011;73500;51.494;5.386;2023-12-20T07:57:42;3.72;;;1.27;;
61709;SDS011;73500;51.494;5.386;2023-12-20T08:00:07;4.85;;;1.40;;
61709;SDS011;73500;51.494;5.386;2023-12-20T08:02:33;4.03;;;1.20;;
61709;SDS011;73500;51.494;5.386;2023-12-20T08:04:58;4.72;;;1.30;;
61709;SDS011;73500;51.494;5.386;2023-12-20T08:07:23;5.25;;;1.60;;
61709;SDS011;73500;51.494;5.386;2023-12-20T08:09:49;7.15;;;1.63;;
61709;SDS011;73500;51.494;5.386;2023-12-20T08:12:14;5.25;;;1.35;;
61709;SDS011;73500;51.494;5.386;2023-12-20T08:14:41;5.15;;;1.30;;
61709;SDS011;73500;51.494;5.386;2023-12-20T08:17:07;5.68;;;1.75;;
61709;SDS011;73500;51.494;5.386;2023-12-20T08:19:32;6.32;;;1.50;;
61709;SDS011;73500;51.494;5.386;2023-12-20T08:21:57;5.57;;;1.63;;
61709;SDS011;73500;51.494;5.386;2023-12-20T08:24:23;4.53;;;1.40;;
61709;SDS011;73500;51.494;5.386;2023-12-20T08:26:48;5.90;;;1.60;;
61709;SDS011;73500;51.494;5.386;2023-12-20T08:29:13;5.80;;;1.90;;
61709;SDS011;73500;51.494;5.386;2023-12-20T08:31:39;5.47;;;1.52;;
61709;SDS011;73500;51.494;5.386;2023-12-20T08:34:04;6.15;;;1.70;;
61709;SDS011;73500;51.494;5.386;2023-12-20T08:36:30;6.45;;;1.45;;
61709;SDS011;73500;51.494;5.386;2023-12-20T08:38:55;7.00;;;1.65;;
61709;SDS011;73500;51.494;5.386;2023-12-20T08:41:20;5.65;;;1.73;;
61709;SDS011;73500;51.494;5.386;2023-12-20T08:43:46;5.72;;;1.50;;
61709;SDS011;73500;51.494;5.386;2023-12-20T08:46:11;5.05;;;1.30;;
61709;SDS011;73500;51.494;5.386;2023-12-20T08:48:37;5.60;;;1.42;;
61709;SDS011;73500;51.494;5.386;2023-12-20T08:51:03;4.20;;;1.35;;
61709;SDS011;73500;51.494;5.386;2023-12-20T08:53:29;4.57;;;1.30;;
61709;SDS011;73500;51.494;5.386;2023-12-20T08:55:54;5.20;;;1.40;;
61709;SDS011;73500;51.494;5.386;2023-12-20T08:58:20;5.90;;;1.60;;
61709;SDS011;73500;51.494;5.386;2023-12-20T09:00:45;7.13;;;1.58;;
61709;SDS011;73500;51.494;5.386;2023-12-20T09:03:11;5.82;;;1.63;;
61709;SDS011;73500;51.494;5.386;2023-12-20T09:05:36;5.85;;;1.73;;
61709;SDS011;73500;51.494;5.386;2023-12-20T09:08:01;7.38;;;1.88;;
61709;SDS011;73500;51.494;5.386;2023-12-20T09:10:27;5.70;;;1.73;;
61709;SDS011;73500;51.494;5.386;2023-12-20T09:12:52;5.65;;;1.52;;
61709;SDS011;73500;51.494;5.386;2023-12-20T09:15:25;5.10;;;1.42;;
61709;SDS011;73500;51.494;5.386;2023-12-20T09:17:51;6.47;;;1.58;;
61709;SDS011;73500;51.494;5.386;2023-12-20T09:20:18;6.03;;;1.70;;
61709;SDS011;73500;51.494;5.386;2023-12-20T09:22:43;6.15;;;1.80;;
61709;SDS011;73500;51.494;5.386;2023-12-20T09:25:09;5.57;;;1.58;;
61709;SDS011;73500;51.494;5.386;2023-12-20T09:27:36;5.57;;;1.50;;
61709;SDS011;73500;51.494;5.386;2023-12-20T09:30:02;6.13;;;1.67;;
61709;SDS011;73500;51.494;5.386;2023-12-20T09:32:29;5.57;;;1.65;;
61709;SDS011;73500;51.494;5.386;2023-12-20T09:34:54;5.78;;;1.40;;
61709;SDS011;73500;51.494;5.386;2023-12-20T09:37:20;7.50;;;1.50;;
61709;SDS011;73500;51.494;5.386;2023-12-20T09:39:45;9.70;;;1.95;;
61709;SDS011;73500;51.494;5.386;2023-12-20T09:42:11;7.25;;;1.80;;
61709;SDS011;73500;51.494;5.386;2023-12-20T09:44:37;5.28;;;1.70;;
61709;SDS011;73500;51.494;5.386;2023-12-20T09:47:05;6.38;;;1.90;;
61709;SDS011;73500;51.494;5.386;2023-12-20T09:49:32;7.47;;;1.98;;
61709;SDS011;73500;51.494;5.386;2023-12-20T09:51:58;7.00;;;1.80;;
61709;SDS011;73500;51.494;5.386;2023-12-20T09:54:25;8.32;;;1.70;;
61709;SDS011;73500;51.494;5.386;2023-12-20T09:56:53;5.13;;;1.40;;
61709;SDS011;73500;51.494;5.386;2023-12-20T09:59:19;6.97;;;1.73;;
61709;SDS011;73500;51.494;5.386;2023-12-20T10:01:44;5.25;;;1.33;;
61709;SDS011;73500;51.494;5.386;2023-12-20T10:04:10;4.18;;;1.33;;
61709;SDS011;73500;51.494;5.386;2023-12-20T10:06:41;5.40;;;1.70;;
61709;SDS011;73500;51.494;5.386;2023-12-20T10:09:07;6.18;;;1.58;;
61709;SDS011;73500;51.494;5.386;2023-12-20T10:11:35;5.40;;;1.73;;
61709;SDS011;73500;51.494;5.386;2023-12-20T10:14:04;5.97;;;2.05;;
61709;SDS011;73500;51.494;5.386;2023-12-20T10:16:30;5.28;;;1.58;;
61709;SDS011;73500;51.494;5.386;2023-12-20T10:18:57;6.57;;;1.70;;
61709;SDS011;73500;51.494;5.386;2023-12-20T10:21:23;5.88;;;1.70;;
61709;SDS011;73500;51.494;5.386;2023-12-20T10:23:51;6.72;;;1.60;;
61709;SDS011;73500;51.494;5.386;2023-12-20T10:26:19;5.85;;;1.48;;
61709;SDS011;73500;51.494;5.386;2023-12-20T10:28:46;5.28;;;1.80;;
61709;SDS011;73500;51.494;5.386;2023-12-20T10:31:25;6.40;;;1.80;;
61709;SDS011;73500;51.494;5.386;2023-12-20T10:34:01;6.60;;;1.65;;
61709;SDS011;73500;51.494;5.386;2023-12-20T10:36:27;7.00;;;1.65;;
61709;SDS011;73500;51.494;5.386;2023-12-20T10:38:54;4.97;;;1.60;;
61709;SDS011;73500;51.494;5.386;2023-12-20T10:41:29;5.07;;;1.45;;
61709;SDS011;73500;51.494;5.386;2023-12-20T10:44:00;7.00;;;1.77;;
61709;SDS011;73500;51.494;5.386;2023-12-20T10:46:29;5.65;;;1.73;;
61709;SDS011;73500;51.494;5.386;2023-12-20T10:48:57;6.03;;;1.52;;
61709;SDS011;73500;51.494;5.386;2023-12-20T10:51:23;5.68;;;1.45;;
61709;SDS011;73500;51.494;5.386;2023-12-20T10:53:50;5.55;;;1.73;;
61709;SDS011;73500;51.494;5.386;2023-12-20T10:56:17;6.28;;;1.70;;
61709;SDS011;73500;51.494;5.386;2023-12-20T10:58:47;5.80;;;1.75;;
61709;SDS011;73500;51.494;5.386;2023-12-20T11:01:14;5.50;;;1.63;;
61709;SDS011;73500;51.494;5.386;2023-12-20T11:03:42;5.63;;;2.03;;
61709;SDS011;73500;51.494;5.386;2023-12-20T11:09:13;5.20;;;1.52;;
61709;SDS011;73500;51.494;5.386;2023-12-20T11:14:46;6.00;;;1.50;;
61709;SDS011;73500;51.494;5.386;2023-12-20T11:17:15;5.72;;;1.73;;
61709;SDS011;73500;51.494;5.386;2023-12-20T11:22:18;7.72;;;1.80;;
61709;SDS011;73500;51.494;5.386;2023-12-20T11:24:45;8.15;;;1.98;;
61709;SDS011;73500;51.494;5.386;2023-12-20T11:27:12;8.13;;;1.95;;
61709;SDS011;73500;51.494;5.386;2023-12-20T11:29:38;6.45;;;1.90;;
61709;SDS011;73500;51.494;5.386;2023-12-20T11:32:49;6.68;;;1.60;;
61709;SDS011;73500;51.494;5.386;2023-12-20T11:34:54;6.53;;;1.58;;
61709;SDS011;73500;51.494;5.386;2023-12-20T11:37:20;5.30;;;1.88;;
61709;SDS011;73500;51.494;5.386;2023-12-20T11:39:54;6.85;;;1.95;;
61709;SDS011;73500;51.494;5.386;2023-12-20T11:42:20;6.10;;;1.92;;
61709;SDS011;73500;51.494;5.386;2023-12-20T11:44:45;5.30;;;2.05;;
61709;SDS011;73500;51.494;5.386;2023-12-20T11:47:12;6.95;;;2.30;;
61709;SDS011;73500;51.494;5.386;2023-12-20T11:49:38;8.32;;;1.88;;
61709;SDS011;73500;51.494;5.386;2023-12-20T11:52:04;7.00;;;2.15;;
61709;SDS011;73500;51.494;5.386;2023-12-20T11:54:30;6.38;;;1.70;;
61709;SDS011;73500;51.494;5.386;2023-12-20T11:56:55;7.07;;;1.55;;
61709;SDS011;73500;51.494;5.386;2023-12-20T11:59:21;7.80;;;1.90;;
61709;SDS011;73500;51.494;5.386;2023-12-20T12:01:50;6.65;;;1.67;;
61709;SDS011;73500;51.494;5.386;2023-12-20T12:04:16;5.53;;;1.80;;
61709;SDS011;73500;51.494;5.386;2023-12-20T12:06:42;7.35;;;1.73;;
61709;SDS011;73500;51.494;5.386;2023-12-20T12:09:08;5.97;;;1.60;;
61709;SDS011;73500;51.494;5.386;2023-12-20T12:11:33;10.10;;;2.05;;
61709;SDS011;73500;51.494;5.386;2023-12-20T12:13:59;5.28;;;1.50;;
61709;SDS011;73500;51.494;5.386;2023-12-20T12:16:26;5.53;;;1.60;;
61709;SDS011;73500;51.494;5.386;2023-12-20T12:18:58;4.57;;;1.48;;
61709;SDS011;73500;51.494;5.386;2023-12-20T12:21:24;7.63;;;1.88;;
61709;SDS011;73500;51.494;5.386;2023-12-20T12:23:49;5.60;;;1.70;;
61709;SDS011;73500;51.494;5.386;2023-12-20T12:26:15;6.50;;;1.83;;
61709;SDS011;73500;51.494;5.386;2023-12-20T12:28:40;6.38;;;1.60;;
61709;SDS011;73500;51.494;5.386;2023-12-20T12:31:07;4.97;;;1.70;;
61709;SDS011;73500;51.494;5.386;2023-12-20T12:33:33;5.88;;;1.50;;
61709;SDS011;73500;51.494;5.386;2023-12-20T12:35:59;6.18;;;1.65;;
61709;SDS011;73500;51.494;5.386;2023-12-20T12:38:30;6.38;;;1.70;;
61709;SDS011;73500;51.494;5.386;2023-12-20T12:40:56;7.05;;;1.83;;
61709;SDS011;73500;51.494;5.386;2023-12-20T12:43:21;6.75;;;1.80;;
61709;SDS011;73500;51.494;5.386;2023-12-20T12:45:48;5.40;;;1.65;;
61709;SDS011;73500;51.494;5.386;2023-12-20T12:48:13;7.13;;;2.17;;
61709;SDS011;73500;51.494;5.386;2023-12-20T12:53:24;13.98;;;4.55;;
61709;SDS011;73500;51.494;5.386;2023-12-20T12:55:51;16.23;;;4.63;;
61709;SDS011;73500;51.494;5.386;2023-12-20T12:58:18;11.73;;;4.22;;
61709;SDS011;73500;51.494;5.386;2023-12-20T13:00:43;14.15;;;6.70;;
61709;SDS011;73500;51.494;5.386;2023-12-20T13:03:10;21.08;;;8.27;;
61709;SDS011;73500;51.494;5.386;2023-12-20T13:05:36;17.17;;;7.65;;
61709;SDS011;73500;51.494;5.386;2023-12-20T13:08:01;17.08;;;8.52;;
61709;SDS011;73500;51.494;5.386;2023-12-20T13:10:26;15.55;;;7.03;;
61709;SDS011;73500;51.494;5.386;2023-12-20T13:12:52;14.57;;;5.75;;
61709;SDS011;73500;51.494;5.386;2023-12-20T13:15:17;13.50;;;6.03;;
61709;SDS011;73500;51.494;5.386;2023-12-20T13:17:42;11.52;;;5.28;;
61709;SDS011;73500;51.494;5.386;2023-12-20T13:20:08;11.25;;;4.82;;
61709;SDS011;73500;51.494;5.386;2023-12-20T13:22:33;10.45;;;4.80;;
61709;SDS011;73500;51.494;5.386;2023-12-20T13:24:58;12.27;;;4.57;;
61709;SDS011;73500;51.494;5.386;2023-12-20T13:27:24;12.67;;;4.70;;
61709;SDS011;73500;51.494;5.386;2023-12-20T13:29:49;14.65;;;5.30;;
61709;SDS011;73500;51.494;5.386;2023-12-20T13:32:14;11.27;;;4.20;;
61709;SDS011;73500;51.494;5.386;2023-12-20T13:34:39;8.93;;;4.30;;
61709;SDS011;73500;51.494;5.386;2023-12-20T13:37:05;9.40;;;4.20;;
61709;SDS011;73500;51.494;5.386;2023-12-20T13:39:30;12.25;;;4.20;;
61709;SDS011;73500;51.494;5.386;2023-12-20T13:41:56;11.07;;;4.60;;
61709;SDS011;73500;51.494;5.386;2023-12-20T13:44:22;8.95;;;3.92;;
61709;SDS011;73500;51.494;5.386;2023-12-20T13:46:47;9.00;;;3.83;;
61709;SDS011;73500;51.494;5.386;2023-12-20T13:49:14;9.65;;;3.28;;
61709;SDS011;73500;51.494;5.386;2023-12-20T13:51:39;9.95;;;3.58;;
61709;SDS011;73500;51.494;5.386;2023-12-20T13:54:05;9.00;;;3.58;;
61709;SDS011;73500;51.494;5.386;2023-12-20T13:56:30;8.63;;;3.70;;
61709;SDS011;73500;51.494;5.386;2023-12-20T13:58:56;9.05;;;3.47;;
61709;SDS011;73500;51.494;5.386;2023-12-20T14:01:21;10.68;;;3.60;;
61709;SDS011;73500;51.494;5.386;2023-12-20T14:03:46;8.27;;;3.33;;
61709;SDS011;73500;51.494;5.386;2023-12-20T14:06:12;8.32;;;3.20;;
61709;SDS011;73500;51.494;5.386;2023-12-20T14:08:38;10.15;;;3.42;;
61709;SDS011;73500;51.494;5.386;2023-12-20T14:11:04;8.68;;;3.30;;
61709;SDS011;73500;51.494;5.386;2023-12-20T14:13:29;10.90;;;3.53;;
61709;SDS011;73500;51.494;5.386;2023-12-20T14:15:54;8.43;;;3.50;;
61709;SDS011;73500;51.494;5.386;2023-12-20T14:18:20;8.93;;;2.80;;
61709;SDS011;73500;51.494;5.386;2023-12-20T14:20:45;6.85;;;2.33;;
61709;SDS011;73500;51.494;5.386;2023-12-20T14:23:12;7.53;;;2.88;;
61709;SDS011;73500;51.494;5.386;2023-12-20T14:25:39;9.10;;;3.58;;
61709;SDS011;73500;51.494;5.386;2023-12-20T14:28:06;8.10;;;3.38;;
61709;SDS011;73500;51.494;5.386;2023-12-20T14:30:31;8.23;;;3.22;;
61709;SDS011;73500;51.494;5.386;2023-12-20T14:32:57;7.32;;;2.78;;
61709;SDS011;73500;51.494;5.386;2023-12-20T14:35:22;6.88;;;2.80;;
61709;SDS011;73500;51.494;5.386;2023-12-20T14:37:48;6.63;;;3.15;;
61709;SDS011;73500;51.494;5.386;2023-12-20T14:40:13;7.35;;;2.85;;
61709;SDS011;73500;51.494;5.386;2023-12-20T14:42:44;9.45;;;2.80;;
61709;SDS011;73500;51.494;5.386;2023-12-20T14:45:10;10.25;;;2.60;;
61709;SDS011;73500;51.494;5.386;2023-12-20T14:47:36;7.07;;;2.40;;
61709;SDS011;73500;51.494;5.386;2023-12-20T14:50:02;10.63;;;2.88;;
61709;SDS011;73500;51.494;5.386;2023-12-20T14:52:29;6.85;;;2.47;;